Station: Cleve Airport

  Atmospheric Gas Attenuation - ITU Rec 676-11   --------------- db/100km ---------------
Date Time Temp RH % AH g/m3 Dew Point Wind Direction Speed kph Gust kph Barometer mB Rainfall Since 9am 24GHz 47GHz 76GHz 122GHz 134GHz 241GHz
21 17:50 13.7 71 8.41 8.5 32 37 1007.4 0 19.2 25.4 38.8 101.9 95.6 328.6
21 17:40 13.9 69 8.27 8.3 33 46 1007.2 0 18.9 25.1 38.2 100.2 93.5 321.3
21 17:30 14.2 67 8.18 8.2 33 54 1006.8 0 18.7 24.9 37.7 98.8 91.9 315.9
21 17:20 13.9 66 7.91 7.7 35 46 1006.9 0 18.1 24.5 36.7 96.4 88.8 305.0
21 17:10 13.8 67 7.98 7.8 30 39 1006.7 0 18.3 24.7 37.1 97.2 89.8 308.5
21 17:00 13.5 68 7.95 7.7 35 54 1006.5 0 18.2 24.7 37.1 97.3 89.7 308.2
21 16:50 13 75 8.51 8.7 37 57 1006.8 0 19.4 25.7 39.5 103.9 97.7 336.0
21 16:40 14.3 65 7.99 7.8 28 37 1006.8 0 18.3 24.5 36.9 96.7 89.4 307.0
21 16:30 14.6 62 7.76 7.4 41 56 1006.6 0 17.8 24.1 35.8 94.0 86.1 295.6
21 16:20 14.4 67 8.28 8.4 41 54 1006.8 0 18.9 25.0 38.0 99.6 93.0 319.6
21 16:10 14.2 65 7.94 7.7 37 48 1006.7 0 18.2 24.5 36.7 96.3 88.8 305.1
21 16:00 14.3 67 8.23 8.3 48 74 1006.1 0 18.8 24.9 37.8 99.2 92.4 317.6
21 15:50 17.5 41 6.11 4.1 46 56 1005.6 0 14.2 20.9 28.7 74.8 63.5 216.9
21 15:40 18.2 40 6.22 4.4 37 44 1005.5 0 14.4 20.9 28.8 75.2 64.2 219.3
21 15:30 18.7 39 6.24 4.5 48 69 1005.3 0 14.4 20.8 28.7 74.9 64.1 218.8
21 15:20 19 34 5.54 2.8 48 57 1005.2 0 12.9 19.8 26.2 68.4 56.1 190.8
21 15:10 18.5 37 5.85 3.6 41 50 1005.2 0 13.6 20.3 27.4 71.6 59.8 204.0
21 15:00 18.7 39 6.24 4.5 44 65 1004.9 0 14.4 20.8 28.7 74.9 64.0 218.7
21 14:50 19.1 38 6.23 4.5 50 63 1004.9 0 14.4 20.7 28.5 74.4 63.6 217.2
21 14:40 19.5 38 6.38 4.8 37 52 1005 0 14.7 20.8 28.9 75.4 65.0 222.1
21 14:30 19.3 36 5.97 3.9 44 61 1004.8 0 13.8 20.3 27.5 71.9 60.6 206.6
21 14:20 19 37 6.03 4 46 67 1004.9 0 13.9 20.5 27.9 72.7 61.5 209.7
21 14:10 19.3 33 5.47 2.6 56 69 1004.9 0 12.7 19.6 25.9 67.5 55.1 187.4
21 14:00 19.1 38 6.23 4.5 46 67 1004.9 0 14.4 20.7 28.5 74.4 63.6 217.2
21 13:50 19.1 41 6.72 5.6 44 63 1004.9 0 15.4 21.4 30.2 78.9 69.1 236.6
21 13:40 19.3 40 6.63 5.4 41 50 1004.9 0 15.2 21.2 29.8 77.9 67.9 232.5
21 13:30 18.4 39 6.13 4.2 43 61 1004.6 0 14.2 20.7 28.4 74.1 63.0 215.1
21 13:20 19 38 6.19 4.4 44 56 1004.8 0 14.3 20.7 28.4 74.1 63.2 215.9
21 13:10 18.5 41 6.49 5 39 56 1004.9 0 14.9 21.2 29.6 77.4 67.0 229.2
21 13:00 18.9 38 6.16 4.3 46 69 1004.9 0 14.2 20.7 28.3 74.0 63.0 215.0
21 12:50 18.6 40 6.37 4.8 46 59 1005 0 14.7 21.0 29.1 76.2 65.6 224.1
21 12:40 18.5 42 6.64 5.4 46 65 1005 0 15.2 21.4 30.1 78.7 68.7 235.2
21 12:30 18.8 41 6.6 5.3 44 65 1004.9 0 15.1 21.3 29.9 78.1 68.0 232.7
21 12:20 19 43 7.01 6.1 37 50 1005 0 16.0 21.8 31.2 81.7 72.5 248.6
21 12:10 19.2 43 7.09 6.3 33 48 1005 0 16.2 21.9 31.4 82.2 73.3 251.3
21 12:00 18.3 46 7.19 6.5 44 61 1004.9 0 16.4 22.2 32.1 84.1 75.3 258.1
21 11:50 18.4 42 6.61 5.3 44 56 1005 0 15.2 21.4 30.0 78.6 68.5 234.3
21 11:40 18.3 40 6.25 4.5 41 52 1005 0 14.4 20.9 28.8 75.3 64.5 220.2
21 11:30 18.8 39 6.28 4.6 44 63 1004.9 0 14.5 20.8 28.8 75.1 64.4 220.0
21 11:20 18.6 40 6.37 4.8 46 61 1005.1 0 14.7 21.0 29.1 76.2 65.6 224.1
21 11:10 18.1 42 6.49 5 54 69 1005.2 0 14.9 21.3 29.7 77.8 67.4 230.3
21 11:00 17.7 43 6.49 5 43 65 1005 0 14.9 21.4 29.9 78.1 67.7 231.4
21 10:50 17.8 41 6.22 4.4 41 54 1005.2 0 14.4 21.0 28.9 75.5 64.5 220.4
21 10:40 17.6 43 6.45 4.9 41 61 1005.3 0 14.9 21.4 29.8 77.9 67.3 230.2
21 10:30 17.4 43 6.37 4.7 43 74 1005.1 0 14.7 21.3 29.6 77.3 66.6 227.5
21 10:20 17.1 44 6.4 4.8 44 70 1005.4 0 14.8 21.4 29.8 77.9 67.2 229.6
21 10:10 16.9 43 6.18 4.3 48 61 1005.3 0 14.3 21.1 29.1 76.0 64.8 221.2
21 10:00 16.9 44 6.33 4.6 44 76 1005.2 0 14.6 21.4 29.6 77.4 66.5 227.3
21 09:50 16.8 45 6.43 4.8 37 52 1005.2 0 14.9 21.5 30.0 78.4 67.8 231.6
21 09:40 16.7 45 6.39 4.7 35 50 1005.3 0 14.8 21.5 29.9 78.2 67.4 230.3
21 09:30 16.1 47 6.44 4.8 50 76 1005.3 0 14.9 21.7 30.3 79.2 68.5 234.1
21 09:20 16.2 44 6.07 3.9 41 50 1005.3 0 14.1 21.2 29.0 75.6 64.1 218.7
21 09:10 15.7 44 5.89 3.5 33 50 1005.4 0 13.8 21.0 28.5 74.4 62.4 212.7
21 09:00 15.3 44 5.75 3.1 41 65 1005.5 0 13.5 20.9 28.2 73.5 61.1 208.1
21 08:50 15.1 43 5.55 2.6 37 54 1005.6 0 13.1 20.7 27.5 71.8 59.0 200.5
21 08:40 14.5 42 5.22 1.8 44 54 1005.6 0 12.4 20.3 26.6 69.3 55.6 188.7
21 08:30 14.5 42 5.22 1.8 35 57 1005.5 0 12.4 20.3 26.6 69.3 55.6 188.7
21 08:20 14.1 43 5.22 1.7 32 41 1005.5 0 12.4 20.4 26.7 69.6 55.9 189.6
21 08:10 13.7 42 4.97 1 37 48 1005.5 0 11.9 20.2 26.0 67.7 53.3 180.5
21 08:00 13.5 41 4.8 0.5 37 54 1005.3 0 11.5 20.0 25.5 66.2 51.5 174.1
21 07:50 13 43 4.88 0.7 41 48 1005.4 0 11.7 20.2 25.9 67.4 52.8 178.4
21 07:40 12.9 44 4.96 1 37 46 1005.4 0 11.9 20.3 26.2 68.2 53.7 181.8
21 07:30 11.4 54 5.54 2.4 28 39 1005.2 0 13.2 21.5 28.8 75.1 61.6 209.4
21 07:20 10.4 58 5.59 2.5 30 37 1005.2 0 13.3 21.8 29.3 76.5 63.0 214.2
21 07:10 10.3 59 5.65 2.7 30 35 1005.1 0 13.4 21.9 29.6 77.2 63.8 217.0
21 07:00 9.4 65 5.88 3.2 30 41 1004.9 0 14.0 22.5 30.8 80.4 67.4 229.5
21 06:50 8.9 69 6.05 3.5 33 37 1005 0 14.3 22.9 31.6 82.6 70.0 238.5
21 06:40 8.4 71 6.03 3.5 33 41 1005 0 14.3 23.0 31.7 82.9 70.2 239.1
21 06:30 8.2 73 6.12 3.7 33 43 1005 0 14.5 23.2 32.1 84.1 71.5 243.8
21 06:20 7.9 73 6 3.4 30 35 1005.1 0 14.3 23.1 31.8 83.2 70.3 239.3
21 06:10 7.9 74 6.08 3.6 32 39 1005.2 0 14.4 23.2 32.1 84.0 71.3 242.9
21 06:00 7.9 74 6.08 3.6 28 35 1005.2 0 14.4 23.2 32.1 84.0 71.3 242.9
21 05:50 7.9 73 6 3.4 30 35 1005.3 0 14.3 23.1 31.8 83.2 70.3 239.3
21 05:40 8.2 71 5.95 3.3 32 41 1005.3 0 14.2 22.9 31.5 82.4 69.4 236.2
21 05:30 8.6 69 5.93 3.2 26 35 1005.2 0 14.1 22.8 31.3 81.7 68.8 234.1
21 05:20 8.6 68 5.85 3 24 28 1005.3 0 13.9 22.6 31.0 80.9 67.8 230.6
21 05:10 8.7 68 5.88 3.1 28 33 1005.3 0 14.0 22.7 31.0 81.1 68.1 231.6
21 04:50 8.6 67 5.76 2.8 24 32 1005.3 0 13.7 22.5 30.6 80.0 66.6 226.6
21 04:40 8.8 66 5.75 2.8 26 30 1005.3 0 13.7 22.4 30.5 79.7 66.3 225.6
21 04:30 9.6 59 5.41 2 20 28 1005.2 0 12.9 21.7 28.9 75.5 61.5 208.5
21 04:20 9.8 59 5.48 2.2 20 24 1005.2 0 13.1 21.8 29.1 76.0 62.2 211.0
21 04:10 9.7 60 5.53 2.3 20 24 1005.2 0 13.2 21.9 29.3 76.6 62.9 213.5
21 04:00 9.8 61 5.66 2.6 20 28 1005.1 0 13.5 22.1 29.8 77.8 64.4 218.8
21 03:50 9.6 63 5.77 2.9 20 22 1005.3 0 13.7 22.3 30.3 79.1 65.9 224.2
21 03:40 9.8 62 5.75 2.9 22 28 1005.3 0 13.7 22.2 30.1 78.7 65.5 222.7
21 03:30 10.2 61 5.81 3 24 33 1005.1 0 13.8 22.2 30.2 78.9 65.9 224.2
21 03:20 9.9 63 5.88 3.2 22 28 1005.1 0 13.9 22.4 30.6 79.9 67.0 228.1
21 03:10 9.8 63 5.85 3.1 24 30 1005.1 0 13.9 22.3 30.5 79.7 66.7 227.1
21 03:00 10.2 60 5.71 2.8 22 32 1005 0 13.6 22.0 29.8 77.9 64.7 219.8
21 02:50 10.8 58 5.73 2.9 28 32 1005.1 0 13.6 21.9 29.7 77.5 64.4 219.1
21 02:40 10.6 60 5.86 3.2 24 30 1005.2 0 13.9 22.2 30.2 79.0 66.2 225.3
21 02:30 10.7 60 5.89 3.3 24 35 1005.2 0 13.9 22.2 30.3 79.2 66.5 226.3
21 02:20 10.6 60 5.86 3.2 22 28 1005.4 0 13.9 22.2 30.2 79.0 66.2 225.3
21 02:10 10.8 59 5.83 3.1 28 32 1005.5 0 13.8 22.1 30.1 78.5 65.7 223.5
21 02:00 10.8 59 5.83 3.1 24 35 1005.5 0 13.8 22.1 30.1 78.5 65.7 223.5
21 01:50 10.9 58 5.77 3 26 33 1005.9 0 13.7 22.0 29.8 77.9 64.9 220.7
21 01:40 10.9 58 5.77 3 26 33 1006.1 0 13.7 22.0 29.8 77.9 64.9 220.7
21 01:30 11.1 58 5.84 3.2 26 37 1006.2 0 13.8 22.1 30.0 78.4 65.6 223.2
21 01:20 11 58 5.81 3.1 24 32 1006.5 0 13.8 22.0 30.0 78.2 65.3 222.2
21 01:10 10.9 58 5.77 3 24 32 1006.7 0 13.7 22.0 29.8 77.9 64.9 220.8

Last Refresh: 21-Sep-2020 18:09:17

Most of the information presented on this site is sourced from the Bureau of Meteorology.  Copyright in all material sourced from the Bureau of Meteorology resides with the Commonwealth of Australia.